createdAt,value
2022-09-04T00:00:51.805Z,15.32
2022-09-04T00:03:28.547Z,15.33
2022-09-04T00:06:05.421Z,15.33
2022-09-04T00:08:52.164Z,15.34
2022-09-04T00:11:51.054Z,15.35
2022-09-04T00:14:38.183Z,15.21
2022-09-04T00:17:25.074Z,15.02
2022-09-04T00:20:01.875Z,14.97
2022-09-04T00:22:50.701Z,15.00
2022-09-04T00:25:21.302Z,15.01
2022-09-04T00:27:53.816Z,15.02
2022-09-04T00:30:22.291Z,15.05
2022-09-04T00:33:05.743Z,15.07
2022-09-04T00:35:44.808Z,15.10
2022-09-04T00:38:22.631Z,15.08
2022-09-04T00:41:31.060Z,15.04
2022-09-04T00:44:59.444Z,14.98
2022-09-04T00:48:07.369Z,14.93
2022-09-04T00:50:46.537Z,14.97
2022-09-04T00:53:44.548Z,14.99
2022-09-04T00:56:53.202Z,14.99
2022-09-04T00:59:57.682Z,15.00
2022-09-04T01:02:46.509Z,15.00
2022-09-04T01:05:33.413Z,14.93
2022-09-04T01:08:44.982Z,14.89
2022-09-04T01:11:41.505Z,14.93
2022-09-04T01:17:41.109Z,15.03
2022-09-04T01:20:47.036Z,15.07
2022-09-04T01:23:38.232Z,15.07
2022-09-04T01:26:28.107Z,15.07
2022-09-04T01:29:45.946Z,14.95
2022-09-04T01:32:31.654Z,14.97
2022-09-04T01:35:19.957Z,15.04
2022-09-04T01:38:18.034Z,15.01
2022-09-04T01:40:48.710Z,14.99
2022-09-04T01:43:18.637Z,14.99
2022-09-04T01:46:44.048Z,15.02
2022-09-04T01:49:48.112Z,15.10
2022-09-04T01:52:41.056Z,15.21
2022-09-04T01:55:34.243Z,15.27
2022-09-04T01:58:29.417Z,15.23
2022-09-04T02:01:35.693Z,15.32
2022-09-04T02:04:39.317Z,15.34
2022-09-04T02:07:33.642Z,15.32
2022-09-04T02:10:29.123Z,15.35
2022-09-04T02:13:08.047Z,15.39
2022-09-04T02:19:28.565Z,15.30
2022-09-04T02:22:24.929Z,15.29
2022-09-04T02:25:16.603Z,15.28
2022-09-04T02:28:06.460Z,15.26
2022-09-04T02:30:59.821Z,15.29
2022-09-04T02:33:52.684Z,15.28
2022-09-04T02:36:34.858Z,15.25
2022-09-04T02:39:11.537Z,15.25
2022-09-04T02:42:19.685Z,15.20
2022-09-04T02:45:08.101Z,15.26
2022-09-04T02:57:55.206Z,15.16
2022-09-04T03:00:43.342Z,15.12
2022-09-04T03:03:21.285Z,15.10
2022-09-04T03:06:03.443Z,15.08
2022-09-04T03:09:02.002Z,15.03
2022-09-04T03:11:55.250Z,15.01
2022-09-04T03:14:35.309Z,14.94
2022-09-04T03:17:13.440Z,14.90
2022-09-04T03:19:50.636Z,14.85
2022-09-04T03:22:42.768Z,14.83
2022-09-04T03:25:32.825Z,14.85
2022-09-04T03:28:00.561Z,14.85
2022-09-04T03:30:32.128Z,14.86
2022-09-04T03:33:12.760Z,14.83
2022-09-04T03:36:23.155Z,14.77
2022-09-04T03:39:04.677Z,14.79
2022-09-04T03:41:38.628Z,14.82
2022-09-04T03:44:45.570Z,14.82
2022-09-04T03:48:04.242Z,14.83
2022-09-04T03:50:42.551Z,14.81
2022-09-04T03:53:41.546Z,14.79
2022-09-04T03:56:49.815Z,14.79
2022-09-04T03:59:52.364Z,14.83
2022-09-04T04:03:01.479Z,14.80
2022-09-04T04:05:44.049Z,14.76
2022-09-04T04:08:56.675Z,14.78
2022-09-04T04:12:13.295Z,14.75
2022-09-04T04:15:21.401Z,14.76
2022-09-04T04:54:57.953Z,14.55
2022-09-04T04:57:40.318Z,14.57
2022-09-04T05:00:26.839Z,14.62
2022-09-04T05:03:32.342Z,14.61
2022-09-04T05:06:10.212Z,14.68
2022-09-04T05:09:09.622Z,14.66
2022-09-04T05:12:20.606Z,14.71
2022-09-04T05:15:03.318Z,14.83
2022-09-04T05:18:07.451Z,14.79
2022-09-04T05:21:38.811Z,14.79
2022-09-04T05:24:13.417Z,14.78
2022-09-04T05:26:54.867Z,14.85
2022-09-04T05:29:51.443Z,14.90
2022-09-04T06:33:22.576Z,16.20
2022-09-04T06:36:14.410Z,16.28
2022-09-04T06:39:22.851Z,16.41
2022-09-04T06:42:11.567Z,16.47
2022-09-04T06:45:20.966Z,16.50
2022-09-04T06:48:34.220Z,16.45
2022-09-04T06:51:32.322Z,16.42
2022-09-04T06:54:13.886Z,16.44
2022-09-04T06:57:23.814Z,16.51
2022-09-04T07:00:12.042Z,16.57
2022-09-04T07:03:20.870Z,16.52
2022-09-04T07:06:05.122Z,16.51
2022-09-04T07:08:58.005Z,16.51
2022-09-04T07:11:56.771Z,16.49
2022-09-04T07:14:53.461Z,16.60
2022-09-04T07:18:01.163Z,16.52
2022-09-04T07:21:07.692Z,16.54
2022-09-04T07:24:34.659Z,16.71
2022-09-04T07:27:53.833Z,16.79
2022-09-04T07:30:22.687Z,16.93
2022-09-04T07:32:56.772Z,16.80
2022-09-04T07:35:45.304Z,16.83
2022-09-04T07:41:36.297Z,16.96
2022-09-04T07:45:00.801Z,16.99
2022-09-04T07:47:35.061Z,16.94
2022-09-04T07:50:21.225Z,16.94
2022-09-04T07:53:35.651Z,16.92
2022-09-04T07:59:59.205Z,17.05
2022-09-04T08:02:38.550Z,17.19
2022-09-04T08:05:24.658Z,17.21
2022-09-04T08:08:53.427Z,17.31
2022-09-04T08:11:45.475Z,17.49
2022-09-04T08:15:04.600Z,17.59
2022-09-04T08:18:14.721Z,17.60
2022-09-04T08:21:27.313Z,17.60
2022-09-04T08:24:12.205Z,17.62
2022-09-04T08:27:15.386Z,17.68
2022-09-04T08:29:53.793Z,17.53
2022-09-04T08:32:51.271Z,17.40
2022-09-04T08:36:12.170Z,17.47
2022-09-04T08:39:07.357Z,17.66
2022-09-04T08:42:21.801Z,17.71
2022-09-04T08:45:28.980Z,17.67
2022-09-04T08:48:42.042Z,17.74
2022-09-04T08:51:31.293Z,17.67
2022-09-04T08:54:35.223Z,17.86
2022-09-04T09:00:21.712Z,17.95
2022-09-04T09:03:34.457Z,18.07
2022-09-04T09:09:43.467Z,18.27
2022-09-04T09:22:26.622Z,18.53
2022-09-04T09:25:20.829Z,18.46
2022-09-04T09:28:25.107Z,18.44
2022-09-04T09:31:38.288Z,18.32
2022-09-04T09:34:52.159Z,18.31
2022-09-04T09:38:12.315Z,18.34
2022-09-04T09:41:39.672Z,18.38
2022-09-04T09:47:57.582Z,18.16
2022-09-04T09:51:00.700Z,18.18
2022-09-04T09:54:09.253Z,18.38
2022-09-04T09:57:29.671Z,18.47
2022-09-04T10:00:17.260Z,18.65
2022-09-04T10:03:20.696Z,18.90
2022-09-04T10:06:24.344Z,19.04
2022-09-04T10:09:29.857Z,19.17
2022-09-04T10:12:33.997Z,19.20
2022-09-04T10:15:48.394Z,19.40
2022-09-04T10:18:36.574Z,19.51
2022-09-04T10:21:55.247Z,19.26
2022-09-04T10:25:06.399Z,19.30
2022-09-04T10:27:43.662Z,19.42
2022-09-04T10:30:17.193Z,19.44
2022-09-04T10:33:42.410Z,19.41
2022-09-04T10:36:22.722Z,19.47
2022-09-04T10:39:46.139Z,19.62
2022-09-04T10:43:17.622Z,19.49
2022-09-04T11:02:27.299Z,19.79
2022-09-04T11:09:03.246Z,19.78
2022-09-04T11:22:02.734Z,20.32
2022-09-04T11:28:01.982Z,20.71
2022-09-04T11:30:55.689Z,20.70
2022-09-04T11:43:02.897Z,20.54
2022-09-04T12:31:13.032Z,21.63
2022-09-04T12:34:09.902Z,21.73
2022-09-04T13:15:45.923Z,22.14
2022-09-04T13:25:28.731Z,22.20
2022-09-04T13:28:16.963Z,22.03
2022-09-04T13:31:00.094Z,21.94
2022-09-04T13:33:51.256Z,21.74
2022-09-04T13:40:30.070Z,21.87
2022-09-04T13:43:14.454Z,22.07
2022-09-04T13:45:45.595Z,22.14
2022-09-04T13:48:20.068Z,22.26
2022-09-04T13:50:55.689Z,22.39
2022-09-04T13:53:35.978Z,22.42
2022-09-04T13:56:12.871Z,22.47
2022-09-04T13:58:49.600Z,22.53
2022-09-04T14:01:21.770Z,22.50
2022-09-04T14:04:04.451Z,22.64
2022-09-04T14:06:34.719Z,22.63
2022-09-04T14:09:06.008Z,22.64
2022-09-04T14:11:58.395Z,22.60
2022-09-04T14:15:13.625Z,22.59
2022-09-04T14:18:23.258Z,22.65
2022-09-04T14:21:01.278Z,22.72
2022-09-04T14:24:32.979Z,22.75
2022-09-04T14:27:21.257Z,22.86
2022-09-04T14:30:19.037Z,22.88
2022-09-04T14:33:34.734Z,22.74
2022-09-04T14:36:35.598Z,22.59
2022-09-04T14:39:20.627Z,22.38
2022-09-04T14:42:30.738Z,22.31
2022-09-04T14:45:26.284Z,22.36
2022-09-04T14:47:58.938Z,22.31
2022-09-04T14:50:30.271Z,22.22
2022-09-04T14:53:04.597Z,22.25
2022-09-04T14:55:34.132Z,22.35
2022-09-04T14:58:23.386Z,22.41
2022-09-04T15:01:01.096Z,22.47
2022-09-04T15:03:51.055Z,22.45
2022-09-04T15:06:32.533Z,22.51
2022-09-04T15:09:35.087Z,22.55
2022-09-04T15:12:34.284Z,22.51
2022-09-04T15:15:32.203Z,22.45
2022-09-04T15:18:10.979Z,22.43
2022-09-04T15:20:53.779Z,22.43
2022-09-04T15:23:30.905Z,22.44
2022-09-04T15:26:09.626Z,22.44
2022-09-04T15:28:48.670Z,22.50
2022-09-04T15:31:43.041Z,22.54
2022-09-04T15:34:21.174Z,22.57
2022-09-04T15:36:48.734Z,22.54
2022-09-04T15:39:31.977Z,22.40
2022-09-04T15:42:00.035Z,22.39
2022-09-04T15:44:38.948Z,22.38
2022-09-04T15:47:54.810Z,22.38
2022-09-04T15:50:27.741Z,22.41
2022-09-04T15:53:13.000Z,22.58
2022-09-04T15:55:42.708Z,22.67
2022-09-04T15:58:53.140Z,22.65
2022-09-04T16:01:28.439Z,22.63
2022-09-04T16:04:26.339Z,22.58
2022-09-04T16:07:02.426Z,22.53
2022-09-04T16:09:53.179Z,22.50
2022-09-04T16:12:51.285Z,22.47
2022-09-04T16:15:24.912Z,22.40
2022-09-04T16:17:54.680Z,22.39
2022-09-04T16:20:39.426Z,22.31
2022-09-04T16:23:09.849Z,22.23
2022-09-04T16:25:43.588Z,22.18
2022-09-04T16:28:34.673Z,22.13
2022-09-04T16:31:03.932Z,22.12
2022-09-04T16:33:53.355Z,22.06
2022-09-04T16:36:40.653Z,21.95
2022-09-04T16:39:14.239Z,21.78
2022-09-04T16:41:56.860Z,21.68
2022-09-04T16:44:33.063Z,21.57
2022-09-04T16:47:10.469Z,21.52
2022-09-04T16:49:49.379Z,21.44
2022-09-04T16:53:14.781Z,21.36
2022-09-04T16:55:58.445Z,21.32
2022-09-04T16:58:46.076Z,21.26
2022-09-04T17:01:22.855Z,21.22
2022-09-04T17:04:13.342Z,21.13
2022-09-04T17:07:05.197Z,21.13
2022-09-04T17:10:01.952Z,21.06
2022-09-04T17:12:53.357Z,20.97
2022-09-04T17:15:38.441Z,20.94
2022-09-04T17:18:11.942Z,20.82
2022-09-04T17:22:43.368Z,20.77
2022-09-04T17:29:00.495Z,20.73
2022-09-04T17:29:18.569Z,20.68
2022-09-04T17:29:51.761Z,20.62
2022-09-04T17:34:14.646Z,20.54
2022-09-04T17:40:36.000Z,20.50
2022-09-04T17:40:48.033Z,20.43
2022-09-04T17:41:55.946Z,20.37
2022-09-04T17:45:03.718Z,20.32
2022-09-04T17:48:01.982Z,20.27
2022-09-04T17:50:29.328Z,20.22
2022-09-04T17:53:05.099Z,20.18
2022-09-04T17:55:47.699Z,20.14
2022-09-04T17:58:26.413Z,20.10
2022-09-04T18:01:15.392Z,20.06
2022-09-04T18:04:32.203Z,20.02
2022-09-04T18:07:50.954Z,19.99
2022-09-04T18:10:31.383Z,19.98
2022-09-04T18:13:36.664Z,19.92
2022-09-04T18:17:12.204Z,19.80
2022-09-04T18:19:46.797Z,19.70
2022-09-04T18:22:59.629Z,19.64
2022-09-04T18:25:53.864Z,19.55
2022-09-04T18:28:33.683Z,19.48
2022-09-04T18:37:06.526Z,19.43
2022-09-04T18:37:16.432Z,19.36
2022-09-04T18:37:55.569Z,19.31
2022-09-04T18:44:47.930Z,19.27
2022-09-04T18:50:28.538Z,19.18
2022-09-04T18:50:37.749Z,19.14
2022-09-04T18:50:39.646Z,19.11
2022-09-04T18:52:18.973Z,19.05
2022-09-04T18:54:50.932Z,18.96
2022-09-04T18:57:49.057Z,18.89
2022-09-04T19:01:11.315Z,18.78
2022-09-04T19:03:45.784Z,18.71
2022-09-04T19:06:27.889Z,18.66
2022-09-04T19:08:58.819Z,18.57
2022-09-04T19:11:31.795Z,18.50
2022-09-04T19:14:10.510Z,18.46
2022-09-04T19:16:43.898Z,18.41
2022-09-04T19:19:51.414Z,18.39
2022-09-04T19:22:51.456Z,18.29
2022-09-04T19:25:25.166Z,18.26
2022-09-04T19:28:52.358Z,18.24
2022-09-04T19:31:33.160Z,18.22
2022-09-04T19:34:10.783Z,18.18
2022-09-04T19:36:54.041Z,18.16
2022-09-04T19:45:55.414Z,18.16
2022-09-04T19:46:07.642Z,18.06
2022-09-04T19:46:14.941Z,18.11
2022-09-04T19:49:45.136Z,17.99
2022-09-04T19:53:24.424Z,17.93
2022-09-04T19:54:59.965Z,17.83
2022-09-04T19:58:00.558Z,17.77
2022-09-04T20:00:42.737Z,17.74
2022-09-04T20:03:33.064Z,17.74
2022-09-04T20:06:21.104Z,17.75
2022-09-04T20:09:14.321Z,17.76
2022-09-04T20:11:47.961Z,17.75
2022-09-04T20:14:40.007Z,17.59
2022-09-04T20:17:33.393Z,17.50
2022-09-04T20:20:06.499Z,17.46
2022-09-04T20:22:48.220Z,17.41
2022-09-04T20:32:08.497Z,17.25
2022-09-04T20:35:13.541Z,17.23
2022-09-04T20:37:53.748Z,17.16
2022-09-04T20:40:59.908Z,17.15
2022-09-04T20:52:49.026Z,17.13
2022-09-04T20:52:50.301Z,17.13
2022-09-04T20:53:09.583Z,17.06
2022-09-04T20:56:17.093Z,17.00
2022-09-04T21:03:05.537Z,16.97
2022-09-04T21:03:20.866Z,16.96
2022-09-04T21:05:22.676Z,16.94
2022-09-04T21:08:19.891Z,16.96
2022-09-04T21:10:55.712Z,16.94
2022-09-04T21:13:28.493Z,16.93
2022-09-04T21:16:11.609Z,16.92
2022-09-04T21:19:29.748Z,16.82
2022-09-04T21:22:33.968Z,16.85
2022-09-04T21:25:33.087Z,16.81
2022-09-04T21:28:41.678Z,16.78
2022-09-04T21:31:47.283Z,16.69
2022-09-04T21:35:06.346Z,16.52
2022-09-04T21:38:17.378Z,16.48
2022-09-04T21:41:21.765Z,16.39
2022-09-04T21:44:14.665Z,16.34
2022-09-04T21:47:24.546Z,16.37
2022-09-04T21:50:36.245Z,16.41
2022-09-04T22:13:27.143Z,16.24
2022-09-04T22:13:46.007Z,16.19
2022-09-04T22:15:05.754Z,16.15
2022-09-04T22:20:57.670Z,16.04
2022-09-04T22:23:59.774Z,16.04
2022-09-04T22:26:50.421Z,16.02
2022-09-04T22:29:39.814Z,16.03
2022-09-04T22:32:27.714Z,15.96
2022-09-04T22:35:46.348Z,15.92
2022-09-04T22:38:54.122Z,15.91
2022-09-04T22:42:05.600Z,15.89
2022-09-04T22:44:40.964Z,15.83
2022-09-04T23:13:57.109Z,15.65
2022-09-04T23:16:01.667Z,15.68
2022-09-04T23:23:20.060Z,15.63
2022-09-04T23:26:38.495Z,15.53
2022-09-04T23:26:50.537Z,15.41
2022-09-04T23:29:15.933Z,15.40
2022-09-04T23:32:16.563Z,15.41
2022-09-04T23:35:14.728Z,15.40
2022-09-04T23:38:21.277Z,15.35
2022-09-04T23:41:21.912Z,15.37
